createdAt,value
2023-03-17T00:01:57.312Z,1.53
2023-03-17T00:04:27.447Z,1.49
2023-03-17T00:06:56.843Z,1.48
2023-03-17T00:09:25.787Z,1.47
2023-03-17T00:11:54.725Z,1.45
2023-03-17T00:14:22.886Z,1.45
2023-03-17T00:16:52.767Z,1.45
2023-03-17T00:19:32.423Z,1.46
2023-03-17T00:22:02.505Z,1.46
2023-03-17T00:24:31.128Z,1.48
2023-03-17T00:26:59.758Z,1.54
2023-03-17T00:29:28.093Z,1.58
2023-03-17T00:31:57.712Z,1.61
2023-03-17T00:34:25.799Z,1.66
2023-03-17T00:36:54.535Z,1.72
2023-03-17T00:39:25.563Z,1.76
2023-03-17T00:41:55.821Z,1.82
2023-03-17T00:44:24.356Z,1.85
2023-03-17T00:46:54.543Z,1.92
2023-03-17T00:49:25.148Z,1.97
2023-03-17T00:51:53.315Z,2.00
2023-03-17T00:54:23.429Z,2.01
2023-03-17T00:56:52.690Z,2.02
2023-03-17T00:59:26.444Z,2.03
2023-03-17T01:01:54.365Z,2.03
2023-03-17T01:04:24.014Z,2.02
2023-03-17T01:06:53.099Z,2.02
2023-03-17T01:09:26.038Z,2.00
2023-03-17T01:11:55.590Z,2.00
2023-03-17T01:14:24.951Z,1.97
2023-03-17T01:16:53.155Z,1.92
2023-03-17T01:19:21.314Z,1.91
2023-03-17T01:21:49.361Z,1.89
2023-03-17T01:24:17.837Z,1.84
2023-03-17T01:26:45.858Z,1.81
2023-03-17T01:29:14.923Z,1.78
2023-03-17T01:31:42.786Z,1.73
2023-03-17T01:34:11.674Z,1.70
2023-03-17T01:36:40.716Z,1.64
2023-03-17T01:39:09.424Z,1.61
2023-03-17T01:41:37.692Z,1.56
2023-03-17T01:44:05.714Z,1.51
2023-03-17T01:46:35.956Z,1.47
2023-03-17T01:49:22.739Z,1.44
2023-03-17T01:51:53.611Z,1.42
2023-03-17T01:54:28.362Z,1.40
2023-03-17T01:57:03.875Z,1.42
2023-03-17T01:59:36.595Z,1.46
2023-03-17T02:02:10.910Z,1.48
2023-03-17T02:04:40.510Z,1.48
2023-03-17T02:07:10.242Z,1.47
2023-03-17T02:09:40.695Z,1.43
2023-03-17T02:12:10.330Z,1.36
2023-03-17T02:14:38.180Z,1.29
2023-03-17T02:17:07.425Z,1.22
2023-03-17T02:19:35.983Z,1.17
2023-03-17T02:22:03.996Z,1.13
2023-03-17T02:24:39.158Z,1.09
2023-03-17T02:27:13.572Z,1.05
2023-03-17T02:29:42.317Z,0.99
2023-03-17T02:32:10.431Z,0.98
2023-03-17T02:34:38.496Z,0.97
2023-03-17T02:37:07.997Z,0.98
2023-03-17T02:39:36.633Z,0.99
2023-03-17T02:42:06.055Z,0.98
2023-03-17T02:44:35.929Z,0.96
2023-03-17T02:47:04.741Z,0.94
2023-03-17T02:49:33.488Z,0.89
2023-03-17T02:52:01.750Z,0.88
2023-03-17T02:54:29.632Z,0.86
2023-03-17T02:56:57.495Z,0.83
2023-03-17T02:59:25.945Z,0.82
2023-03-17T03:01:54.887Z,0.82
2023-03-17T03:04:24.328Z,0.82
2023-03-17T03:06:52.514Z,0.79
2023-03-17T03:09:21.157Z,0.78
2023-03-17T03:11:49.097Z,0.78
2023-03-17T03:14:17.064Z,0.75
2023-03-17T03:16:45.180Z,0.74
2023-03-17T03:19:13.262Z,0.72
2023-03-17T03:21:41.530Z,0.72
2023-03-17T03:24:11.018Z,0.73
2023-03-17T03:26:38.993Z,0.75
2023-03-17T03:29:06.904Z,0.78
2023-03-17T03:31:35.230Z,0.79
2023-03-17T03:34:03.241Z,0.80
2023-03-17T03:36:31.207Z,0.78
2023-03-17T03:39:00.993Z,0.72
2023-03-17T03:41:29.233Z,0.66
2023-03-17T03:43:57.430Z,0.56
2023-03-17T03:46:26.787Z,0.53
2023-03-17T03:48:55.546Z,0.49
2023-03-17T03:51:23.480Z,0.46
2023-03-17T03:53:51.402Z,0.47
2023-03-17T03:56:19.313Z,0.48
2023-03-17T03:58:47.664Z,0.46
2023-03-17T04:01:15.465Z,0.42
2023-03-17T04:03:43.791Z,0.40
2023-03-17T04:06:11.887Z,0.37
2023-03-17T04:08:39.829Z,0.33
2023-03-17T04:11:08.833Z,0.25
2023-03-17T04:13:36.677Z,0.18
2023-03-17T04:16:05.048Z,0.13
2023-03-17T04:18:33.108Z,0.08
2023-03-17T04:21:01.751Z,0.05
2023-03-17T04:23:31.566Z,0.08
2023-03-17T04:25:59.711Z,0.08
2023-03-17T04:28:27.727Z,0.06
2023-03-17T04:30:56.292Z,0.06
2023-03-17T04:33:24.237Z,0.07
2023-03-17T04:35:52.438Z,0.02
2023-03-17T04:38:20.727Z,-0.05
2023-03-17T04:40:50.621Z,-0.07
2023-03-17T04:43:18.665Z,-0.10
2023-03-17T04:45:46.850Z,-0.16
2023-03-17T04:48:14.814Z,-0.14
2023-03-17T04:50:42.856Z,-0.08
2023-03-17T04:53:10.703Z,-0.13
2023-03-17T04:55:38.614Z,-0.16
2023-03-17T04:58:06.912Z,-0.14
2023-03-17T05:00:38.831Z,-0.13
2023-03-17T05:03:20.013Z,-0.14
2023-03-17T05:05:54.094Z,-0.17
2023-03-17T05:08:22.030Z,-0.15
2023-03-17T05:10:51.422Z,-0.11
2023-03-17T05:13:19.309Z,-0.09
2023-03-17T05:15:48.172Z,-0.14
2023-03-17T05:18:16.894Z,-0.19
2023-03-17T05:20:45.615Z,-0.23
2023-03-17T05:23:13.752Z,-0.19
2023-03-17T05:25:42.158Z,-0.20
2023-03-17T05:28:10.536Z,-0.17
2023-03-17T05:30:38.561Z,-0.14
2023-03-17T05:33:06.830Z,-0.06
2023-03-17T05:35:35.037Z,-0.04
2023-03-17T05:38:03.517Z,-0.02
2023-03-17T05:40:32.802Z,0.02
2023-03-17T05:43:02.122Z,0.09
2023-03-17T05:45:30.959Z,0.17
2023-03-17T05:48:06.602Z,0.22
2023-03-17T05:50:35.978Z,0.29
2023-03-17T05:53:04.066Z,0.37
2023-03-17T05:55:32.163Z,0.45
2023-03-17T05:58:01.065Z,0.53
2023-03-17T06:00:29.860Z,0.62
2023-03-17T06:02:58.301Z,0.69
2023-03-17T06:05:26.579Z,0.75
2023-03-17T06:07:56.605Z,0.82
2023-03-17T06:10:25.539Z,0.87
2023-03-17T06:12:53.560Z,0.91
2023-03-17T06:15:21.775Z,1.03
2023-03-17T06:17:50.053Z,1.00
2023-03-17T06:20:22.335Z,1.01
2023-03-17T06:23:03.773Z,1.04
2023-03-17T06:25:34.799Z,1.07
2023-03-17T06:28:06.422Z,1.13
2023-03-17T06:30:38.088Z,1.22
2023-03-17T06:33:08.277Z,1.31
2023-03-17T06:35:36.703Z,1.39
2023-03-17T06:38:05.276Z,1.49
2023-03-17T06:40:34.170Z,1.60
2023-03-17T06:43:03.051Z,1.70
2023-03-17T06:45:33.208Z,1.80
2023-03-17T06:48:02.477Z,1.88
2023-03-17T06:50:30.968Z,1.94
2023-03-17T06:52:59.019Z,2.05
2023-03-17T06:55:27.523Z,2.13
2023-03-17T06:57:55.419Z,2.22
2023-03-17T07:00:23.904Z,2.33
2023-03-17T07:02:52.700Z,2.43
2023-03-17T07:05:20.638Z,2.56
2023-03-17T07:07:51.527Z,2.65
2023-03-17T07:10:19.548Z,2.76
2023-03-17T07:12:47.925Z,2.90
2023-03-17T07:15:17.321Z,3.04
2023-03-17T07:17:48.116Z,3.18
2023-03-17T07:20:16.678Z,3.35
2023-03-17T07:22:44.673Z,3.54
2023-03-17T07:25:12.780Z,3.79
2023-03-17T07:27:40.894Z,3.99
2023-03-17T07:30:09.461Z,4.11
2023-03-17T07:32:37.708Z,4.22
2023-03-17T07:35:08.246Z,4.37
2023-03-17T07:37:36.473Z,4.50
2023-03-17T07:40:06.322Z,4.59
2023-03-17T07:42:34.685Z,4.71
2023-03-17T07:45:05.207Z,4.79
2023-03-17T07:47:33.335Z,4.85
2023-03-17T07:50:01.326Z,4.93
2023-03-17T07:52:29.550Z,5.04
2023-03-17T07:54:58.545Z,5.14
2023-03-17T07:57:28.782Z,5.18
2023-03-17T07:59:56.749Z,5.25
2023-03-17T08:02:25.326Z,5.29
2023-03-17T08:04:54.206Z,5.31
2023-03-17T08:07:22.265Z,5.34
2023-03-17T08:09:50.454Z,5.40
2023-03-17T08:12:18.592Z,5.44
2023-03-17T08:14:46.661Z,5.48
2023-03-17T08:17:14.755Z,5.53
2023-03-17T08:19:44.041Z,5.58
2023-03-17T08:22:13.292Z,5.66
2023-03-17T08:24:43.100Z,5.71
2023-03-17T08:27:11.860Z,5.76
2023-03-17T08:29:39.993Z,5.82
2023-03-17T08:32:08.986Z,5.86
2023-03-17T08:34:37.600Z,5.91
2023-03-17T08:37:07.959Z,5.97
2023-03-17T08:39:37.933Z,5.97
2023-03-17T08:42:06.300Z,5.99
2023-03-17T08:44:35.224Z,6.05
2023-03-17T08:47:03.850Z,6.10
2023-03-17T08:49:35.086Z,6.17
2023-03-17T08:52:03.570Z,6.28
2023-03-17T08:54:31.489Z,6.32
2023-03-17T08:56:59.392Z,6.30
2023-03-17T08:59:27.694Z,6.34
2023-03-17T09:01:57.962Z,6.40
2023-03-17T09:04:26.685Z,6.48
2023-03-17T09:07:03.742Z,6.53
2023-03-17T09:09:35.481Z,6.59
2023-03-17T09:12:07.044Z,6.62
2023-03-17T09:14:43.379Z,6.65
2023-03-17T09:17:14.587Z,6.67
2023-03-17T09:19:43.873Z,6.75
2023-03-17T09:22:18.799Z,6.83
2023-03-17T09:24:49.400Z,6.84
2023-03-17T09:27:17.482Z,6.87
2023-03-17T09:29:45.673Z,6.93
2023-03-17T09:32:14.033Z,6.98
2023-03-17T09:34:42.094Z,7.05
2023-03-17T09:37:10.412Z,7.04
2023-03-17T09:39:38.461Z,7.05
2023-03-17T09:42:36.472Z,7.07
2023-03-17T09:45:17.504Z,7.12
2023-03-17T09:47:54.494Z,7.14
2023-03-17T09:50:32.290Z,7.19
2023-03-17T09:53:05.122Z,7.25
2023-03-17T09:55:35.933Z,7.27
2023-03-17T09:58:04.426Z,7.27
2023-03-17T10:00:33.010Z,7.30
2023-03-17T10:03:02.092Z,7.31
2023-03-17T10:05:34.992Z,7.35
2023-03-17T10:08:15.647Z,7.43
2023-03-17T10:10:55.100Z,7.48
2023-03-17T10:13:42.429Z,7.49
2023-03-17T10:16:18.620Z,7.50
2023-03-17T10:18:55.313Z,7.52
2023-03-17T10:21:28.914Z,7.54
2023-03-17T10:24:00.318Z,7.60
2023-03-17T10:26:34.723Z,7.63
2023-03-17T10:29:06.079Z,7.67
2023-03-17T10:31:35.751Z,7.72
2023-03-17T10:34:16.279Z,7.74
2023-03-17T10:37:07.292Z,7.73
2023-03-17T10:39:44.876Z,7.75
2023-03-17T10:42:22.508Z,7.76
2023-03-17T10:45:13.610Z,7.76
2023-03-17T10:47:47.201Z,7.80
2023-03-17T10:50:15.533Z,7.79
2023-03-17T10:52:47.569Z,7.83
2023-03-17T10:55:20.285Z,7.91
2023-03-17T10:57:57.418Z,7.94
2023-03-17T11:00:29.428Z,7.96
2023-03-17T11:02:59.559Z,8.00
2023-03-17T11:05:29.821Z,8.06
2023-03-17T11:08:07.321Z,8.13
2023-03-17T11:10:40.716Z,8.17
2023-03-17T11:13:09.515Z,8.11
2023-03-17T11:15:46.290Z,8.08
2023-03-17T11:18:28.424Z,8.09
2023-03-17T11:21:09.759Z,8.13
2023-03-17T11:23:52.614Z,8.13
2023-03-17T11:26:41.870Z,8.11
2023-03-17T11:29:19.761Z,8.15
2023-03-17T11:31:56.700Z,8.21
2023-03-17T11:34:24.608Z,8.39
2023-03-17T11:37:13.988Z,8.53
2023-03-17T11:39:50.781Z,8.58
2023-03-17T11:42:36.104Z,8.59
2023-03-17T11:45:12.957Z,8.63
2023-03-17T11:48:06.112Z,8.69
2023-03-17T11:50:39.461Z,8.72
2023-03-17T11:53:43.520Z,8.74
2023-03-17T11:56:33.306Z,8.85
2023-03-17T11:59:14.095Z,8.93
2023-03-17T12:02:21.363Z,9.05
2023-03-17T12:05:05.133Z,9.12
2023-03-17T12:07:48.245Z,9.14
2023-03-17T12:10:49.515Z,9.16
2023-03-17T12:13:23.240Z,9.14
2023-03-17T12:16:04.346Z,9.09
2023-03-17T12:18:38.450Z,9.02
2023-03-17T12:21:20.861Z,9.01
2023-03-17T12:23:52.439Z,9.01
2023-03-17T12:26:37.203Z,9.00
2023-03-17T12:29:43.182Z,8.98
2023-03-17T12:32:18.480Z,9.04
2023-03-17T12:35:02.463Z,9.07
2023-03-17T12:37:30.776Z,9.07
2023-03-17T12:40:15.056Z,9.03
2023-03-17T12:42:52.525Z,9.02
2023-03-17T12:45:30.614Z,9.05
2023-03-17T12:48:04.449Z,9.07
2023-03-17T12:50:35.369Z,9.11
2023-03-17T12:53:12.486Z,9.13
2023-03-17T12:55:42.552Z,9.11
2023-03-17T12:58:32.517Z,9.09
2023-03-17T13:01:08.983Z,9.08
2023-03-17T13:03:45.793Z,9.16
2023-03-17T13:06:21.372Z,9.20
2023-03-17T13:08:52.606Z,9.22
2023-03-17T13:11:47.764Z,9.25
2023-03-17T13:14:27.106Z,9.27
2023-03-17T13:17:18.756Z,9.25
2023-03-17T13:20:08.422Z,9.26
2023-03-17T13:22:42.116Z,9.24
2023-03-17T13:25:27.499Z,9.21
2023-03-17T13:28:20.783Z,9.20
2023-03-17T13:30:54.907Z,9.20
2023-03-17T13:33:31.131Z,9.24
2023-03-17T13:36:10.123Z,9.26
2023-03-17T13:39:19.276Z,9.27
2023-03-17T13:42:19.822Z,9.23
2023-03-17T13:45:09.634Z,9.22
2023-03-17T13:47:42.581Z,9.23
2023-03-17T13:50:17.566Z,9.23
2023-03-17T13:52:50.083Z,9.26
2023-03-17T13:55:18.149Z,9.25
2023-03-17T13:58:16.705Z,9.20
2023-03-17T14:00:48.997Z,9.20
2023-03-17T14:03:29.261Z,9.21
2023-03-17T14:06:01.279Z,9.21
2023-03-17T14:08:35.688Z,9.25
2023-03-17T14:11:09.014Z,9.29
2023-03-17T14:13:59.993Z,9.32
2023-03-17T14:16:30.241Z,9.33
2023-03-17T14:19:09.541Z,9.31
2023-03-17T14:21:37.603Z,9.33
2023-03-17T14:24:19.878Z,9.35
2023-03-17T14:26:48.888Z,9.32
2023-03-17T14:29:21.436Z,9.30
2023-03-17T14:32:00.378Z,9.29
2023-03-17T14:34:28.440Z,9.26
2023-03-17T14:37:01.605Z,9.22
2023-03-17T14:39:29.729Z,9.20
2023-03-17T14:42:05.852Z,9.20
2023-03-17T14:44:38.954Z,9.19
2023-03-17T14:47:21.011Z,9.19
2023-03-17T14:49:51.273Z,9.17
2023-03-17T14:52:27.931Z,9.15
2023-03-17T14:54:59.287Z,9.13
2023-03-17T14:57:31.818Z,9.14
2023-03-17T15:00:22.854Z,9.15
2023-03-17T15:02:58.447Z,9.19
2023-03-17T15:05:39.878Z,9.17
2023-03-17T15:08:36.572Z,9.15
2023-03-17T15:11:06.372Z,9.16
2023-03-17T15:13:37.616Z,9.15
2023-03-17T15:16:14.969Z,9.12
2023-03-17T15:18:43.815Z,9.07
2023-03-17T15:21:27.397Z,9.02
2023-03-17T15:23:55.553Z,9.00
2023-03-17T15:26:31.558Z,9.00
2023-03-17T15:29:00.560Z,9.01
2023-03-17T15:31:30.309Z,9.00
2023-03-17T15:33:58.547Z,9.01
2023-03-17T15:36:32.685Z,9.00
2023-03-17T15:39:02.656Z,8.95
2023-03-17T15:41:30.589Z,8.91
2023-03-17T15:43:58.644Z,8.90
2023-03-17T15:46:31.164Z,8.89
2023-03-17T15:49:00.052Z,8.86
2023-03-17T15:51:28.158Z,8.82
2023-03-17T15:53:56.142Z,8.80
2023-03-17T15:56:24.278Z,8.76
2023-03-17T15:58:52.669Z,8.74
2023-03-17T16:01:21.381Z,8.71
2023-03-17T16:03:50.229Z,8.68
2023-03-17T16:06:21.798Z,8.64
2023-03-17T16:08:50.346Z,8.67
2023-03-17T16:11:28.482Z,8.66
2023-03-17T16:13:59.907Z,8.63
2023-03-17T16:16:34.058Z,8.58
2023-03-17T16:19:03.031Z,8.52
2023-03-17T16:21:32.375Z,8.47
2023-03-17T16:24:00.596Z,8.41
2023-03-17T16:26:28.759Z,8.36
2023-03-17T16:28:57.388Z,8.31
2023-03-17T16:31:31.807Z,8.30
2023-03-17T16:34:00.127Z,8.38
2023-03-17T16:36:28.350Z,8.41
2023-03-17T16:38:56.243Z,8.37
2023-03-17T16:41:27.826Z,8.34
2023-03-17T16:44:01.536Z,8.27
2023-03-17T16:46:35.072Z,8.24
2023-03-17T16:49:04.623Z,8.18
2023-03-17T16:51:32.826Z,8.05
2023-03-17T16:54:00.805Z,7.95
2023-03-17T16:56:28.821Z,7.86
2023-03-17T16:58:57.546Z,7.77
2023-03-17T17:01:28.025Z,7.63
2023-03-17T17:03:57.112Z,7.53
2023-03-17T17:06:25.337Z,7.46
2023-03-17T17:08:53.407Z,7.34
2023-03-17T17:11:21.506Z,7.25
2023-03-17T17:13:49.785Z,7.18
2023-03-17T17:16:27.123Z,7.11
2023-03-17T17:18:56.038Z,7.03
2023-03-17T17:21:24.045Z,6.95
2023-03-17T17:23:53.225Z,6.89
2023-03-17T17:26:22.375Z,6.81
2023-03-17T17:28:50.561Z,6.75
2023-03-17T17:31:18.625Z,6.70
2023-03-17T17:33:46.897Z,6.65
2023-03-17T17:36:17.046Z,6.59
2023-03-17T17:38:45.596Z,6.55
2023-03-17T17:41:14.352Z,6.53
2023-03-17T17:43:42.520Z,6.45
2023-03-17T17:46:17.933Z,6.39
2023-03-17T17:48:46.325Z,6.35
2023-03-17T17:51:14.510Z,6.30
2023-03-17T17:53:42.428Z,6.26
2023-03-17T17:56:14.864Z,6.22
2023-03-17T17:58:43.777Z,6.18
2023-03-17T18:01:14.334Z,6.12
2023-03-17T18:03:43.197Z,6.08
2023-03-17T18:06:13.242Z,6.06
2023-03-17T18:08:41.525Z,6.04
2023-03-17T18:11:09.590Z,6.02
2023-03-17T18:13:39.101Z,5.99
2023-03-17T18:16:10.099Z,5.97
2023-03-17T18:18:40.832Z,5.93
2023-03-17T18:21:09.835Z,5.92
2023-03-17T18:23:39.337Z,5.93
2023-03-17T18:26:07.511Z,5.90
2023-03-17T18:28:36.086Z,5.87
2023-03-17T18:31:10.581Z,5.85
2023-03-17T18:33:45.729Z,5.82
2023-03-17T18:36:14.333Z,5.80
2023-03-17T18:38:42.347Z,5.80
2023-03-17T18:41:11.216Z,5.81
2023-03-17T18:43:41.095Z,5.80
2023-03-17T18:46:09.131Z,5.78
2023-03-17T18:48:37.226Z,5.78
2023-03-17T18:51:05.733Z,5.78
2023-03-17T18:53:35.439Z,5.78
2023-03-17T18:56:03.545Z,5.77
2023-03-17T18:58:31.410Z,5.76
2023-03-17T19:01:01.552Z,5.75
2023-03-17T19:03:32.294Z,5.69
2023-03-17T19:06:13.844Z,5.61
2023-03-17T19:08:42.679Z,5.55
2023-03-17T19:11:13.685Z,5.50
2023-03-17T19:13:42.345Z,5.45
2023-03-17T19:16:10.722Z,5.37
2023-03-17T19:18:41.928Z,5.27
2023-03-17T19:21:12.216Z,5.18
2023-03-17T19:23:41.437Z,5.13
2023-03-17T19:26:10.488Z,5.09
2023-03-17T19:28:38.471Z,5.02
2023-03-17T19:31:06.642Z,4.98
2023-03-17T19:33:35.191Z,4.92
2023-03-17T19:36:08.892Z,4.87
2023-03-17T19:38:37.430Z,4.83
2023-03-17T19:41:05.704Z,4.80
2023-03-17T19:43:40.760Z,4.77
2023-03-17T19:46:11.524Z,4.76
2023-03-17T19:48:40.483Z,4.71
2023-03-17T19:51:09.562Z,4.64
2023-03-17T19:53:37.648Z,4.60
2023-03-17T19:56:06.540Z,4.55
2023-03-17T19:58:34.663Z,4.51
2023-03-17T20:01:06.977Z,4.47
2023-03-17T20:03:39.048Z,4.40
2023-03-17T20:06:08.215Z,4.37
2023-03-17T20:08:36.462Z,4.36
2023-03-17T20:11:06.032Z,4.30
2023-03-17T20:13:35.413Z,4.22
2023-03-17T20:16:04.194Z,4.18
2023-03-17T20:18:32.373Z,4.15
2023-03-17T20:21:01.722Z,4.10
2023-03-17T20:23:29.804Z,4.07
2023-03-17T20:25:57.894Z,4.03
2023-03-17T20:28:25.991Z,3.96
2023-03-17T20:30:59.603Z,3.92
2023-03-17T20:33:27.917Z,3.88
2023-03-17T20:35:55.955Z,3.86
2023-03-17T20:38:23.996Z,3.85
2023-03-17T20:40:51.996Z,3.85
2023-03-17T20:43:19.992Z,3.88
2023-03-17T20:45:50.713Z,3.87
2023-03-17T20:48:18.821Z,3.84
2023-03-17T20:50:50.042Z,3.77
2023-03-17T20:53:18.357Z,3.75
2023-03-17T20:55:47.241Z,3.73
2023-03-17T20:58:15.179Z,3.70
2023-03-17T21:00:43.339Z,3.70
2023-03-17T21:03:11.628Z,3.73
2023-03-17T21:05:39.598Z,3.76
2023-03-17T21:08:08.949Z,3.75
2023-03-17T21:10:37.077Z,3.74
2023-03-17T21:13:04.992Z,3.69
2023-03-17T21:15:33.093Z,3.67
2023-03-17T21:18:01.132Z,3.70
2023-03-17T21:20:29.553Z,3.74
2023-03-17T21:22:57.909Z,3.75
2023-03-17T21:25:26.719Z,3.74
2023-03-17T21:27:54.774Z,3.73
2023-03-17T21:30:22.663Z,3.69
2023-03-17T21:32:50.561Z,3.67
2023-03-17T21:35:18.639Z,3.66
2023-03-17T21:37:46.482Z,3.65
2023-03-17T21:40:15.763Z,3.62
2023-03-17T21:42:43.895Z,3.62
2023-03-17T21:45:12.565Z,3.60
2023-03-17T21:47:41.324Z,3.58
2023-03-17T21:50:09.622Z,3.58
2023-03-17T21:52:38.133Z,3.57
2023-03-17T21:55:08.203Z,3.57
2023-03-17T21:57:37.838Z,3.55
2023-03-17T22:00:08.332Z,3.52
2023-03-17T22:02:41.761Z,3.49
2023-03-17T22:05:10.579Z,3.47
2023-03-17T22:07:41.114Z,3.43
2023-03-17T22:10:13.420Z,3.41
2023-03-17T22:12:41.300Z,3.39
2023-03-17T22:15:12.604Z,3.35
2023-03-17T22:17:40.519Z,3.29
2023-03-17T22:20:10.621Z,3.26
2023-03-17T22:22:38.630Z,3.23
2023-03-17T22:25:07.171Z,3.20
2023-03-17T22:27:35.104Z,3.17
2023-03-17T22:30:03.920Z,3.13
2023-03-17T22:32:32.253Z,3.12
2023-03-17T22:35:00.288Z,3.14
2023-03-17T22:37:28.288Z,3.12
2023-03-17T22:40:02.287Z,3.08
2023-03-17T22:42:30.137Z,3.08
2023-03-17T22:44:58.744Z,3.05
2023-03-17T22:47:26.829Z,3.04
2023-03-17T22:49:54.763Z,3.01
2023-03-17T22:52:22.768Z,2.98
2023-03-17T22:54:50.707Z,2.95
2023-03-17T22:57:18.560Z,2.94
2023-03-17T22:59:46.641Z,2.94
2023-03-17T23:02:18.417Z,2.94
2023-03-17T23:04:46.755Z,2.89
2023-03-17T23:07:14.809Z,2.85
2023-03-17T23:09:45.304Z,2.85
2023-03-17T23:12:13.325Z,2.83
2023-03-17T23:14:41.214Z,2.81
2023-03-17T23:17:09.468Z,2.81
2023-03-17T23:19:37.353Z,2.81
2023-03-17T23:22:05.382Z,2.80
2023-03-17T23:24:33.455Z,2.80
2023-03-17T23:27:01.785Z,2.78
2023-03-17T23:29:29.738Z,2.81
2023-03-17T23:31:57.822Z,2.80
2023-03-17T23:34:25.899Z,2.77
2023-03-17T23:36:53.962Z,2.76
2023-03-17T23:39:21.833Z,2.72
2023-03-17T23:41:50.162Z,2.69
2023-03-17T23:44:18.130Z,2.62
2023-03-17T23:46:46.534Z,2.59
2023-03-17T23:49:14.597Z,2.58
2023-03-17T23:51:42.823Z,2.56
2023-03-17T23:54:10.810Z,2.53
2023-03-17T23:56:38.748Z,2.51
2023-03-17T23:59:08.164Z,2.52
